createdAt,value
2023-04-16T00:02:14.451Z,24.77
2023-04-16T00:04:41.960Z,44.72
2023-04-16T00:07:09.322Z,19.13
2023-04-16T00:09:36.801Z,60.10
2023-04-16T00:12:04.821Z,27.00
2023-04-16T00:14:32.427Z,20.05
2023-04-16T00:16:59.777Z,31.55
2023-04-16T00:19:27.093Z,54.25
2023-04-16T00:21:54.393Z,25.75
2023-04-16T00:24:21.607Z,30.35
2023-04-16T00:26:48.829Z,54.00
2023-04-16T00:29:16.118Z,37.63
2023-04-16T00:31:43.348Z,55.20
2023-04-16T00:34:10.953Z,55.30
2023-04-16T00:36:38.156Z,52.42
2023-04-16T00:39:05.471Z,53.25
2023-04-16T00:41:32.666Z,57.67
2023-04-16T00:43:59.906Z,48.53
2023-04-16T00:46:27.645Z,35.78
2023-04-16T00:48:55.882Z,33.97
2023-04-16T00:51:23.464Z,25.27
2023-04-16T00:53:51.533Z,17.70
2023-04-16T00:56:19.060Z,12.57
2023-04-16T00:58:46.272Z,11.38
2023-04-16T01:01:14.477Z,10.82
2023-04-16T01:03:46.085Z,11.93
2023-04-16T01:06:13.744Z,25.17
2023-04-16T01:08:41.073Z,30.38
2023-04-16T01:11:08.623Z,35.15
2023-04-16T01:13:39.358Z,23.65
2023-04-16T01:16:11.474Z,11.85
2023-04-16T01:18:39.211Z,23.05
2023-04-16T01:21:06.862Z,15.07
2023-04-16T01:23:34.186Z,29.55
2023-04-16T01:26:01.415Z,19.13
2023-04-16T01:28:28.653Z,33.67
2023-04-16T01:30:55.863Z,27.33
2023-04-16T01:33:23.093Z,36.45
2023-04-16T01:35:50.270Z,33.95
2023-04-16T01:38:17.580Z,22.77
2023-04-16T01:40:44.928Z,12.48
2023-04-16T01:43:12.415Z,40.65
2023-04-16T01:45:39.636Z,41.95
2023-04-16T01:48:07.118Z,43.88
2023-04-16T01:50:34.696Z,50.40
2023-04-16T01:53:04.900Z,54.50
2023-04-16T01:55:33.703Z,52.30
2023-04-16T01:58:00.932Z,56.50
2023-04-16T02:00:28.199Z,54.42
2023-04-16T02:02:55.635Z,52.13
2023-04-16T02:05:22.944Z,45.60
2023-04-16T02:07:50.174Z,49.63
2023-04-16T02:10:17.374Z,35.28
2023-04-16T02:12:44.539Z,28.02
2023-04-16T02:15:12.214Z,47.30
2023-04-16T02:17:39.465Z,46.28
2023-04-16T02:20:09.408Z,49.97
2023-04-16T02:22:36.577Z,25.83
2023-04-16T02:25:04.048Z,15.68
2023-04-16T02:27:31.218Z,37.30
2023-04-16T02:29:58.395Z,15.32
2023-04-16T02:32:25.713Z,36.08
2023-04-16T02:34:52.947Z,34.22
2023-04-16T02:37:20.179Z,42.78
2023-04-16T02:39:47.474Z,34.70
2023-04-16T02:42:16.040Z,39.30
2023-04-16T02:44:43.270Z,17.58
2023-04-16T02:47:10.504Z,29.23
2023-04-16T02:49:37.724Z,41.63
2023-04-16T02:52:04.972Z,51.83
2023-04-16T02:54:32.157Z,52.10
2023-04-16T02:56:59.332Z,52.10
2023-04-16T02:59:26.961Z,57.72
2023-04-16T03:01:54.294Z,50.75
2023-04-16T03:04:21.596Z,60.28
2023-04-16T03:06:48.899Z,60.92
2023-04-16T03:09:16.166Z,51.72
2023-04-16T03:11:43.351Z,51.53
2023-04-16T03:14:10.603Z,74.78
2023-04-16T03:16:37.774Z,64.13
2023-04-16T03:19:04.954Z,55.95
2023-04-16T03:21:32.265Z,72.13
2023-04-16T03:23:59.443Z,56.17
2023-04-16T03:26:27.048Z,58.97
2023-04-16T03:28:54.271Z,47.90
2023-04-16T03:31:23.745Z,55.47
2023-04-16T03:33:51.731Z,66.05
2023-04-16T03:36:19.155Z,48.95
2023-04-16T03:38:46.473Z,56.88
2023-04-16T03:41:13.700Z,54.70
2023-04-16T03:43:41.105Z,57.63
2023-04-16T03:46:08.307Z,21.55
2023-04-16T03:48:36.382Z,62.33
2023-04-16T03:51:03.810Z,60.10
2023-04-16T03:53:31.032Z,44.90
2023-04-16T03:55:58.295Z,46.10
2023-04-16T03:58:25.465Z,19.88
2023-04-16T04:00:55.433Z,51.75
2023-04-16T04:03:22.758Z,56.45
2023-04-16T04:05:50.453Z,68.85
2023-04-16T04:08:17.636Z,56.25
2023-04-16T04:10:45.832Z,56.78
2023-04-16T04:13:13.387Z,57.88
2023-04-16T04:15:40.610Z,47.78
2023-04-16T04:18:07.884Z,47.10
2023-04-16T04:20:34.705Z,39.05
2023-04-16T04:23:01.892Z,49.05
2023-04-16T04:25:29.110Z,66.80
2023-04-16T04:27:56.292Z,65.07
2023-04-16T04:30:23.547Z,64.45
2023-04-16T04:32:51.093Z,64.80
2023-04-16T04:35:18.398Z,60.50
2023-04-16T04:37:45.855Z,59.53
2023-04-16T04:40:13.483Z,58.70
2023-04-16T04:42:40.904Z,58.85
2023-04-16T04:45:08.983Z,45.97
2023-04-16T04:47:36.162Z,55.90
2023-04-16T04:50:03.524Z,55.92
2023-04-16T04:52:30.842Z,61.60
2023-04-16T04:54:58.050Z,57.17
2023-04-16T04:57:25.455Z,68.15
2023-04-16T04:59:52.649Z,54.50
2023-04-16T05:02:20.088Z,60.10
2023-04-16T05:04:47.401Z,63.50
2023-04-16T05:07:14.649Z,57.63
2023-04-16T05:09:41.864Z,56.78
2023-04-16T05:12:09.131Z,56.67
2023-04-16T05:14:36.407Z,54.08
2023-04-16T05:17:04.071Z,52.95
2023-04-16T05:19:31.620Z,60.63
2023-04-16T05:21:59.278Z,55.63
2023-04-16T05:24:26.464Z,59.55
2023-04-16T05:26:53.643Z,65.22
2023-04-16T05:29:20.891Z,54.95
2023-04-16T05:31:48.063Z,69.35
2023-04-16T05:34:15.433Z,65.65
2023-04-16T05:36:42.682Z,64.90
2023-04-16T05:39:10.716Z,70.03
2023-04-16T05:41:38.032Z,66.53
2023-04-16T05:44:05.522Z,85.18
2023-04-16T05:46:32.871Z,72.13
2023-04-16T05:49:00.542Z,70.10
2023-04-16T05:51:27.959Z,81.88
2023-04-16T05:53:55.258Z,62.67
2023-04-16T05:56:23.321Z,73.75
2023-04-16T05:58:50.523Z,71.45
2023-04-16T06:01:18.053Z,65.97
2023-04-16T06:03:45.525Z,57.72
2023-04-16T06:06:12.921Z,64.43
2023-04-16T06:08:40.248Z,75.07
2023-04-16T06:11:07.479Z,70.85
2023-04-16T06:13:34.662Z,65.88
2023-04-16T06:16:01.918Z,60.40
2023-04-16T06:18:29.250Z,63.60
2023-04-16T06:20:57.248Z,67.75
2023-04-16T06:23:24.480Z,66.93
2023-04-16T06:25:51.792Z,57.70
2023-04-16T06:28:18.603Z,61.53
2023-04-16T06:30:46.789Z,62.97
2023-04-16T06:33:14.412Z,58.97
2023-04-16T06:35:41.177Z,60.30
2023-04-16T06:38:07.926Z,63.65
2023-04-16T06:40:36.936Z,72.25
2023-04-16T06:43:05.977Z,57.72
2023-04-16T06:45:32.729Z,59.28
2023-04-16T06:47:59.546Z,52.05
2023-04-16T06:50:26.859Z,67.28
2023-04-16T06:52:53.955Z,61.55
2023-04-16T06:55:20.848Z,48.72
2023-04-16T06:57:47.586Z,61.50
2023-04-16T07:00:14.652Z,49.85
2023-04-16T07:02:41.473Z,56.90
2023-04-16T07:05:09.040Z,55.45
2023-04-16T07:07:35.764Z,59.10
2023-04-16T07:10:02.485Z,56.85
2023-04-16T07:12:29.304Z,67.70
2023-04-16T07:14:56.585Z,48.88
2023-04-16T07:17:23.310Z,61.85
2023-04-16T07:19:51.721Z,66.40
2023-04-16T07:22:18.403Z,59.33
2023-04-16T07:24:45.349Z,32.60
2023-04-16T07:27:13.049Z,26.50
2023-04-16T07:29:39.929Z,53.60
2023-04-16T07:32:07.552Z,41.78
2023-04-16T07:34:34.331Z,49.80
2023-04-16T07:37:01.202Z,29.50
2023-04-16T07:39:27.903Z,25.63
2023-04-16T07:41:54.831Z,29.83
2023-04-16T07:44:21.622Z,66.68
2023-04-16T07:46:48.400Z,46.30
2023-04-16T07:49:15.556Z,48.85
2023-04-16T07:51:42.575Z,31.95
2023-04-16T07:54:10.230Z,40.75
2023-04-16T07:56:36.939Z,66.63
2023-04-16T07:59:18.367Z,68.15
2023-04-16T08:01:49.564Z,39.20
2023-04-16T08:04:20.647Z,35.50
2023-04-16T08:06:47.422Z,47.45
2023-04-16T08:09:14.148Z,37.85
2023-04-16T08:11:41.070Z,41.92
2023-04-16T08:14:08.222Z,29.52
2023-04-16T08:16:34.926Z,37.97
2023-04-16T08:19:01.655Z,36.88
2023-04-16T08:21:29.244Z,33.92
2023-04-16T08:23:56.266Z,36.85
2023-04-16T08:26:23.000Z,33.08
2023-04-16T08:28:49.738Z,38.85
2023-04-16T08:31:16.827Z,35.50
2023-04-16T08:33:43.781Z,33.58
2023-04-16T08:36:10.816Z,36.25
2023-04-16T08:38:37.553Z,38.55
2023-04-16T08:41:09.237Z,36.03
2023-04-16T08:43:39.390Z,37.88
2023-04-16T08:46:06.702Z,50.40
2023-04-16T08:48:34.988Z,37.67
2023-04-16T08:51:02.740Z,37.97
2023-04-16T08:53:43.080Z,40.25
2023-04-16T08:56:11.726Z,37.30
2023-04-16T08:58:40.238Z,34.25
2023-04-16T09:01:09.286Z,34.42
2023-04-16T09:03:36.961Z,35.70
2023-04-16T09:06:06.155Z,38.22
2023-04-16T09:08:35.687Z,39.22
2023-04-16T09:11:03.194Z,42.22
2023-04-16T09:13:31.764Z,39.17
2023-04-16T09:15:58.558Z,41.10
2023-04-16T09:18:25.667Z,42.10
2023-04-16T09:20:52.890Z,44.60
2023-04-16T09:23:19.648Z,51.78
2023-04-16T09:25:46.469Z,49.53
2023-04-16T09:28:13.220Z,70.55
2023-04-16T09:30:39.992Z,55.50
2023-04-16T09:33:23.459Z,67.85
2023-04-16T09:35:52.736Z,39.13
2023-04-16T09:38:20.673Z,53.00
2023-04-16T09:40:47.620Z,41.95
2023-04-16T09:43:17.203Z,43.35
2023-04-16T09:45:55.095Z,41.35
2023-04-16T09:48:33.368Z,45.50
2023-04-16T09:51:01.337Z,46.78
2023-04-16T09:53:30.970Z,46.88
2023-04-16T09:55:59.824Z,51.63
2023-04-16T09:58:27.081Z,52.22
2023-04-16T10:01:08.715Z,46.67
2023-04-16T10:03:38.288Z,47.92
2023-04-16T10:06:18.436Z,48.40
2023-04-16T10:08:50.394Z,44.67
2023-04-16T10:11:21.321Z,43.15
2023-04-16T10:13:49.093Z,40.30
2023-04-16T10:16:17.899Z,41.72
2023-04-16T10:18:46.408Z,49.05
2023-04-16T10:21:13.857Z,41.17
2023-04-16T10:23:41.907Z,41.92
2023-04-16T10:26:09.491Z,41.03
2023-04-16T10:28:37.047Z,41.53
2023-04-16T10:31:07.523Z,43.90
2023-04-16T10:33:39.286Z,46.85
2023-04-16T10:36:23.192Z,75.15
2023-04-16T10:38:52.467Z,43.95
2023-04-16T10:41:22.468Z,43.95
2023-04-16T10:43:50.950Z,55.95
2023-04-16T10:46:32.792Z,59.95
2023-04-16T10:49:19.109Z,37.70
2023-04-16T10:51:57.165Z,41.38
2023-04-16T10:54:30.068Z,43.70
2023-04-16T10:57:04.908Z,55.65
2023-04-16T10:59:35.250Z,62.47
2023-04-16T11:02:16.024Z,47.05
2023-04-16T11:04:48.326Z,50.78
2023-04-16T11:07:20.982Z,48.67
2023-04-16T11:10:04.291Z,72.50
2023-04-16T11:12:46.458Z,76.88
2023-04-16T11:15:21.349Z,70.13
2023-04-16T11:17:51.614Z,81.45
2023-04-16T11:20:24.727Z,37.75
2023-04-16T11:22:56.800Z,97.65
2023-04-16T11:25:30.625Z,104.88
2023-04-16T11:27:59.148Z,71.35
2023-04-16T11:30:34.823Z,43.65
2023-04-16T11:33:11.142Z,48.75
2023-04-16T11:35:41.516Z,46.88
2023-04-16T11:38:08.700Z,50.17
2023-04-16T11:40:36.303Z,64.25
2023-04-16T11:43:14.802Z,34.05
2023-04-16T11:46:12.880Z,48.05
2023-04-16T11:48:52.173Z,85.80
2023-04-16T11:51:20.584Z,40.17
2023-04-16T11:53:53.119Z,51.42
2023-04-16T11:56:34.410Z,62.17
2023-04-16T11:59:11.784Z,76.40
2023-04-16T12:01:42.230Z,37.15
2023-04-16T12:04:09.746Z,46.95
2023-04-16T12:06:36.788Z,66.55
2023-04-16T12:09:26.015Z,49.95
2023-04-16T12:11:53.563Z,69.18
2023-04-16T12:14:20.893Z,73.68
2023-04-16T12:16:48.097Z,37.60
2023-04-16T12:19:16.085Z,25.73
2023-04-16T12:21:46.819Z,51.95
2023-04-16T12:24:16.917Z,59.95
2023-04-16T12:26:51.936Z,68.85
2023-04-16T12:29:24.645Z,48.42
2023-04-16T12:31:53.808Z,49.65
2023-04-16T12:34:21.796Z,47.28
2023-04-16T12:37:12.217Z,43.60
2023-04-16T12:39:39.096Z,50.83
2023-04-16T12:42:09.713Z,44.05
2023-04-16T12:44:36.698Z,53.08
2023-04-16T12:47:05.412Z,65.53
2023-04-16T12:49:32.445Z,61.53
2023-04-16T12:51:59.185Z,63.40
2023-04-16T12:54:29.029Z,23.95
2023-04-16T12:56:55.733Z,19.65
2023-04-16T12:59:23.442Z,25.30
2023-04-16T13:01:50.611Z,34.72
2023-04-16T13:04:19.136Z,67.20
2023-04-16T13:06:46.336Z,71.10
2023-04-16T13:09:13.424Z,59.30
2023-04-16T13:11:40.245Z,49.03
2023-04-16T13:14:07.454Z,60.47
2023-04-16T13:16:34.254Z,62.70
2023-04-16T13:19:01.340Z,63.22
2023-04-16T13:21:28.266Z,80.40
2023-04-16T13:23:55.192Z,52.72
2023-04-16T13:26:22.022Z,68.60
2023-04-16T13:28:48.781Z,69.15
2023-04-16T13:31:18.552Z,70.10
2023-04-16T13:33:45.364Z,56.60
2023-04-16T13:36:12.526Z,75.63
2023-04-16T13:38:39.526Z,54.05
2023-04-16T13:41:06.435Z,79.90
2023-04-16T13:43:33.167Z,61.60
2023-04-16T13:46:00.947Z,51.10
2023-04-16T13:48:28.640Z,52.13
2023-04-16T13:50:56.085Z,50.08
2023-04-16T13:53:22.913Z,59.95
2023-04-16T13:55:49.896Z,70.95
2023-04-16T13:58:16.752Z,30.67
2023-04-16T14:00:43.804Z,57.33
2023-04-16T14:03:10.754Z,52.03
2023-04-16T14:05:37.536Z,67.93
2023-04-16T14:08:04.295Z,55.22
2023-04-16T14:10:31.974Z,86.07
2023-04-16T14:12:58.886Z,75.75
2023-04-16T14:15:27.416Z,63.28
2023-04-16T14:17:54.254Z,74.55
2023-04-16T14:20:21.358Z,64.63
2023-04-16T14:22:48.087Z,34.20
2023-04-16T14:25:14.952Z,68.30
2023-04-16T14:27:41.731Z,67.53
2023-04-16T14:30:09.201Z,64.68
2023-04-16T14:32:36.649Z,60.80
2023-04-16T14:35:04.180Z,51.70
2023-04-16T14:37:31.208Z,56.63
2023-04-16T14:39:58.040Z,51.45
2023-04-16T14:42:24.869Z,62.13
2023-04-16T14:44:52.484Z,61.50
2023-04-16T14:47:19.325Z,59.85
2023-04-16T14:49:46.420Z,70.68
2023-04-16T14:52:13.277Z,62.15
2023-04-16T14:54:40.033Z,63.00
2023-04-16T14:57:06.814Z,71.35
2023-04-16T14:59:33.664Z,53.08
2023-04-16T15:02:00.975Z,50.28
2023-04-16T15:04:28.100Z,43.08
2023-04-16T15:06:58.767Z,65.93
2023-04-16T15:09:27.381Z,51.72
2023-04-16T15:11:54.516Z,83.18
2023-04-16T15:14:21.783Z,76.57
2023-04-16T15:16:48.679Z,58.85
2023-04-16T15:19:15.596Z,65.45
2023-04-16T15:21:42.379Z,86.28
2023-04-16T15:24:09.292Z,78.85
2023-04-16T15:26:36.621Z,78.90
2023-04-16T15:29:03.506Z,70.00
2023-04-16T15:31:30.690Z,68.60
2023-04-16T15:33:57.601Z,68.45
2023-04-16T15:36:24.334Z,70.97
2023-04-16T15:38:51.185Z,80.07
2023-04-16T15:41:18.034Z,65.88
2023-04-16T15:43:45.054Z,64.20
2023-04-16T15:46:11.847Z,72.18
2023-04-16T15:48:38.649Z,83.10
2023-04-16T15:51:05.899Z,72.70
2023-04-16T15:53:33.807Z,66.20
2023-04-16T15:56:00.800Z,81.38
2023-04-16T15:58:27.765Z,73.88
2023-04-16T16:00:54.460Z,81.65
2023-04-16T16:03:21.697Z,87.80
2023-04-16T16:05:49.060Z,89.85
2023-04-16T16:08:16.550Z,95.63
2023-04-16T16:10:43.585Z,99.65
2023-04-16T16:13:13.175Z,81.82
2023-04-16T16:15:41.277Z,96.63
2023-04-16T16:18:08.254Z,86.43
2023-04-16T16:20:36.559Z,114.28
2023-04-16T16:23:03.542Z,112.70
2023-04-16T16:25:30.411Z,112.90
2023-04-16T16:27:58.715Z,108.15
2023-04-16T16:30:26.379Z,86.72
2023-04-16T16:32:56.372Z,77.03
2023-04-16T16:35:24.226Z,80.88
2023-04-16T16:37:55.388Z,65.72
2023-04-16T16:40:22.193Z,78.05
2023-04-16T16:42:48.988Z,80.97
2023-04-16T16:45:16.065Z,100.63
2023-04-16T16:47:42.823Z,93.63
2023-04-16T16:50:11.423Z,111.47
2023-04-16T16:52:38.897Z,112.93
2023-04-16T16:55:08.690Z,103.25
2023-04-16T16:57:35.446Z,106.78
2023-04-16T17:00:02.284Z,82.25
2023-04-16T17:02:29.161Z,70.28
2023-04-16T17:04:58.888Z,56.53
2023-04-16T17:07:25.750Z,63.45
2023-04-16T17:09:52.540Z,55.35
2023-04-16T17:12:19.317Z,74.30
2023-04-16T17:14:51.179Z,57.83
2023-04-16T17:17:21.999Z,60.17
2023-04-16T17:19:48.986Z,97.72
2023-04-16T17:22:16.268Z,84.13
2023-04-16T17:24:43.354Z,75.68
2023-04-16T17:27:10.108Z,73.95
2023-04-16T17:29:36.868Z,60.10
2023-04-16T17:32:04.497Z,54.30
2023-04-16T17:34:31.236Z,59.08
2023-04-16T17:36:58.024Z,53.22
2023-04-16T17:39:24.854Z,53.60
2023-04-16T17:41:54.658Z,55.90
2023-04-16T17:44:22.989Z,58.28
2023-04-16T17:46:49.759Z,59.20
2023-04-16T17:49:16.799Z,62.40
2023-04-16T17:51:44.538Z,66.40
2023-04-16T17:54:11.896Z,103.50
2023-04-16T17:56:38.819Z,99.88
2023-04-16T17:59:05.668Z,71.18
2023-04-16T18:01:32.451Z,113.63
2023-04-16T18:03:59.431Z,70.60
2023-04-16T18:06:27.608Z,109.47
2023-04-16T18:08:54.311Z,123.25
2023-04-16T18:11:21.149Z,76.55
2023-04-16T18:13:48.441Z,70.28
2023-04-16T18:16:18.510Z,97.53
2023-04-16T18:18:45.906Z,93.78
2023-04-16T18:21:13.271Z,70.43
2023-04-16T18:23:40.068Z,73.63
2023-04-16T18:26:08.506Z,61.70
2023-04-16T18:28:36.199Z,71.80
2023-04-16T18:31:05.524Z,78.93
2023-04-16T18:36:02.776Z,71.45
2023-04-16T18:38:31.257Z,67.05
2023-04-16T18:40:58.510Z,67.65
2023-04-16T18:43:25.418Z,61.22
2023-04-16T18:45:52.183Z,59.60
2023-04-16T18:48:18.952Z,59.05
2023-04-16T18:50:45.919Z,53.67
2023-04-16T18:53:12.832Z,53.95
2023-04-16T18:55:39.597Z,57.47
2023-04-16T18:58:06.330Z,55.45
2023-04-16T19:00:33.079Z,57.85
2023-04-16T19:03:00.081Z,53.45
2023-04-16T19:05:26.879Z,53.25
2023-04-16T19:07:54.229Z,59.25
2023-04-16T19:10:21.032Z,56.10
2023-04-16T19:12:47.814Z,54.28
2023-04-16T19:15:14.751Z,58.42
2023-04-16T19:17:42.077Z,54.70
2023-04-16T19:20:11.741Z,54.08
2023-04-16T19:22:38.628Z,55.17
2023-04-16T19:25:07.219Z,56.20
2023-04-16T19:27:34.147Z,56.30
2023-04-16T19:30:00.850Z,55.30
2023-04-16T19:32:27.597Z,63.58
2023-04-16T19:34:54.490Z,53.67
2023-04-16T19:37:21.173Z,48.55
2023-04-16T19:39:47.920Z,47.90
2023-04-16T19:42:14.690Z,51.15
2023-04-16T19:44:41.502Z,49.67
2023-04-16T19:47:08.402Z,49.67
2023-04-16T19:49:35.286Z,50.25
2023-04-16T19:52:02.169Z,50.20
2023-04-16T19:54:29.160Z,48.88
2023-04-16T19:56:57.026Z,50.20
2023-04-16T19:59:25.062Z,48.47
2023-04-16T20:01:51.780Z,51.75
2023-04-16T20:04:18.647Z,44.65
2023-04-16T20:06:45.544Z,46.17
2023-04-16T20:09:12.618Z,45.05
2023-04-16T20:11:39.558Z,46.35
2023-04-16T20:14:06.253Z,44.10
2023-04-16T20:16:33.707Z,43.25
2023-04-16T20:19:04.047Z,49.30
2023-04-16T20:21:32.235Z,51.80
2023-04-16T20:24:01.867Z,48.45
2023-04-16T20:26:33.943Z,45.28
2023-04-16T20:29:01.062Z,47.78
2023-04-16T20:31:28.182Z,43.88
2023-04-16T20:33:55.518Z,46.67
2023-04-16T20:36:22.327Z,46.85
2023-04-16T20:38:51.980Z,48.13
2023-04-16T20:41:22.687Z,44.80
2023-04-16T20:43:50.271Z,43.38
2023-04-16T20:46:17.661Z,43.63
2023-04-16T20:48:44.726Z,38.60
2023-04-16T20:51:11.555Z,42.47
2023-04-16T20:53:38.900Z,44.40
2023-04-16T20:56:06.888Z,46.30
2023-04-16T20:58:33.653Z,42.75
2023-04-16T21:01:00.711Z,42.40
2023-04-16T21:03:27.721Z,43.03
2023-04-16T21:05:55.788Z,43.63
2023-04-16T21:08:24.135Z,42.10
2023-04-16T21:10:51.284Z,44.72
2023-04-16T21:13:18.870Z,44.55
2023-04-16T21:15:46.187Z,45.63
2023-04-16T21:18:13.277Z,44.38
2023-04-16T21:20:40.153Z,44.25
2023-04-16T21:23:06.926Z,42.97
2023-04-16T21:25:33.767Z,48.25
2023-04-16T21:28:00.702Z,44.90
2023-04-16T21:30:27.502Z,47.50
2023-04-16T21:32:54.834Z,43.92
2023-04-16T21:35:21.674Z,48.13
2023-04-16T21:37:48.398Z,48.40
2023-04-16T21:40:15.204Z,51.55
2023-04-16T21:42:42.408Z,45.60
2023-04-16T21:45:10.381Z,49.30
2023-04-16T21:47:37.945Z,50.92
2023-04-16T21:50:05.796Z,44.45
2023-04-16T21:52:33.054Z,50.10
2023-04-16T21:55:02.884Z,49.42
2023-04-16T21:57:29.688Z,47.25
2023-04-16T21:59:56.417Z,50.08
2023-04-16T22:02:23.473Z,46.90
2023-04-16T22:04:50.549Z,46.60
2023-04-16T22:07:20.624Z,49.50
2023-04-16T22:09:47.357Z,51.80
2023-04-16T22:12:14.137Z,52.60
2023-04-16T22:14:49.159Z,55.03
2023-04-16T22:17:23.541Z,60.63
2023-04-16T22:19:50.825Z,73.05
2023-04-16T22:22:18.486Z,82.43
2023-04-16T22:24:46.289Z,54.05
2023-04-16T22:27:13.039Z,53.22
2023-04-16T22:29:39.746Z,59.78
2023-04-16T22:32:06.929Z,52.60
2023-04-16T22:34:33.798Z,50.97
2023-04-16T22:37:02.977Z,56.17
2023-04-16T22:39:31.540Z,50.65
2023-04-16T22:41:58.364Z,52.80
2023-04-16T22:44:25.235Z,53.00
2023-04-16T22:46:52.251Z,48.72
2023-04-16T22:49:19.144Z,52.95
2023-04-16T22:51:46.251Z,52.80
2023-04-16T22:54:14.050Z,53.42
2023-04-16T22:56:41.068Z,57.72
2023-04-16T22:59:08.048Z,63.03
2023-04-16T23:01:35.536Z,148.00
2023-04-16T23:04:02.513Z,125.40
2023-04-16T23:06:29.246Z,114.07
2023-04-16T23:08:55.960Z,103.63
2023-04-16T23:11:23.240Z,90.15
2023-04-16T23:13:50.008Z,90.15
2023-04-16T23:16:16.912Z,63.17
2023-04-16T23:18:43.654Z,87.45
2023-04-16T23:21:10.476Z,110.28
2023-04-16T23:23:37.228Z,108.82
2023-04-16T23:26:04.287Z,88.22
2023-04-16T23:28:31.038Z,51.58
2023-04-16T23:30:57.875Z,70.28
2023-04-16T23:33:24.668Z,51.65
2023-04-16T23:35:51.460Z,63.25
2023-04-16T23:38:18.358Z,59.95
2023-04-16T23:40:45.262Z,62.92
2023-04-16T23:43:12.051Z,117.32
2023-04-16T23:45:38.908Z,113.00
2023-04-16T23:48:06.228Z,98.88
2023-04-16T23:50:33.053Z,106.60
2023-04-16T23:52:59.812Z,104.13
2023-04-16T23:55:26.575Z,113.78
2023-04-16T23:57:53.376Z,129.50
